Time;durP1;ratioP1;P1;durP2;ratioP2;P2;SDS_P1;SDS_P2;PMS_P1;PMS_P2;Temp;Humidity;BMP_temperature;BMP_pressure;BME280_temperature;BME280_humidity;BME280_pressure;Samples;Min_cycle;Max_cycle;Signal;HPM_P1;HPM_P2
2021/06/25 06:32:04;;;;;;;37.95;5.80;;;;;;;28.35;60.03;99936.16;1773475;78;21091;-36
2021/06/25 06:34:35;;;;;;;10.43;4.17;;;;;;;28.42;59.45;99942.79;1780286;78;21501;-36
2021/06/25 06:37:03;;;;;;;22.20;5.62;;;;;;;28.49;59.53;99935.08;1799522;77;21080;-36
2021/06/25 06:39:31;;;;;;;16.77;5.00;;;;;;;28.59;59.45;99943.64;1792367;78;21044;-41
2021/06/25 06:41:59;;;;;;;12.58;4.45;;;;;;;28.72;59.96;99943.98;1792959;78;21080;-41
2021/06/25 06:44:27;;;;;;;15.72;4.97;;;;;;;28.80;59.35;99939.68;1798555;77;20969;-41
2021/06/25 06:46:54;;;;;;;21.77;5.05;;;;;;;28.85;58.86;99946.04;1753294;79;21500;-40
2021/06/25 06:49:21;;;;;;;13.95;5.40;;;;;;;28.86;59.39;99940.52;1769206;79;21012;-41
2021/06/25 06:51:48;;;;;;;13.22;4.87;;;;;;;28.89;59.21;99939.44;1758874;80;21084;-41
2021/06/25 06:54:15;;;;;;;19.80;5.17;;;;;;;28.92;59.75;99933.78;1762811;80;21028;-40
2021/06/25 06:56:41;;;;;;;13.88;5.33;;;;;;;28.93;58.75;99930.63;1745472;80;21027;-41
2021/06/25 06:59:08;;;;;;;16.87;5.45;;;;;;;28.93;59.18;99929.28;1760405;80;21040;-40
2021/06/25 07:01:35;;;;;;;22.93;5.60;;;;;;;28.93;59.42;99934.67;1756796;80;21497;-40
2021/06/25 07:04:02;;;;;;;10.55;4.87;;;;;;;28.94;59.24;99933.71;1764148;80;21049;-40
2021/06/25 07:06:29;;;;;;;28.73;6.00;;;;;;;28.92;59.01;99931.58;1779016;80;21610;-35
2021/06/25 07:08:56;;;;;;;19.32;5.17;;;;;;;28.93;59.30;99930.14;1757232;80;21081;-36
2021/06/25 07:11:23;;;;;;;14.80;5.50;;;;;;;28.96;59.57;99926.36;1770742;79;21022;-34
2021/06/25 07:13:52;;;;;;;13.13;5.10;;;;;;;28.96;58.70;99927.70;1750608;80;21038;-41
2021/06/25 07:16:20;;;;;;;8.58;4.05;;;;;;;28.99;59.64;99920.23;1751784;80;21100;-36
2021/06/25 07:18:48;;;;;;;16.02;4.90;;;;;;;29.03;60.26;99918.13;1763065;80;21059;-42
2021/06/25 07:21:18;;;;;;;12.75;4.92;;;;;;;29.06;60.18;99917.39;1758518;80;21547;-36
2021/06/25 07:23:45;;;;;;;15.10;4.70;;;;;;;29.13;59.65;99920.43;1774175;80;21052;-42
2021/06/25 07:26:11;;;;;;;17.98;5.37;;;;;;;29.18;57.97;99922.25;1763072;80;20997;-42
2021/06/25 07:28:38;;;;;;;15.38;4.37;;;;;;;29.18;59.03;99926.78;1776159;80;21494;-42
2021/06/25 07:31:05;;;;;;;16.67;5.15;;;;;;;29.19;58.67;99923.11;1766388;80;21029;-37
2021/06/25 07:33:32;;;;;;;13.72;6.15;;;;;;;29.24;59.76;99934.35;1771297;79;21112;-42
2021/06/25 07:36:00;;;;;;;24.20;5.15;;;;;;;29.23;58.91;99931.30;1781718;78;21056;-42
2021/06/25 07:38:26;;;;;;;16.62;5.47;;;;;;;29.23;59.57;99933.50;1787405;78;21078;-37
2021/06/25 07:40:53;;;;;;;16.90;4.85;;;;;;;29.25;59.33;99932.87;1791911;79;21028;-37
2021/06/25 07:43:20;;;;;;;19.45;5.20;;;;;;;29.26;59.95;99925.14;1767892;80;21047;-36
2021/06/25 07:45:47;;;;;;;13.75;5.12;;;;;;;29.26;58.98;99928.34;1755047;80;21121;-42
2021/06/25 07:48:15;;;;;;;18.12;5.45;;;;;;;29.25;59.33;99926.63;1773518;80;21036;-42
2021/06/25 07:50:43;;;;;;;14.43;5.05;;;;;;;29.25;59.79;99919.41;1760788;80;21016;-42
2021/06/25 07:53:10;;;;;;;10.40;5.25;;;;;;;29.31;60.25;99926.12;1772707;79;21035;-42
2021/06/25 07:55:42;;;;;;;14.28;5.75;;;;;;;29.40;60.78;99918.13;1800137;77;20984;-37
2021/06/25 07:58:06;;;;;;;19.40;5.53;;;;;;;29.59;59.28;99928.23;1780543;78;21037;-38
2021/06/25 08:00:33;;;;;;;11.22;4.50;;;;;;;29.76;59.17;99924.59;1810535;77;20989;-42
2021/06/25 08:03:00;;;;;;;17.32;4.45;;;;;;;29.92;58.12;99925.84;1740250;80;21625;-42
2021/06/25 08:05:28;;;;;;;15.50;4.95;;;;;;;30.05;57.01;99929.66;1805444;77;21024;-42
2021/06/25 08:07:55;;;;;;;18.65;4.83;;;;;;;30.18;56.91;99928.12;1807007;78;21638;-36
2021/06/25 08:10:21;;;;;;;17.07;4.85;;;;;;;30.30;56.66;99925.70;1796394;78;21159;-42
2021/06/25 08:12:48;;;;;;;13.58;4.85;;;;;;;30.39;55.15;99924.05;1760542;80;21053;-41
2021/06/25 08:15:18;;;;;;;18.12;4.87;;;;;;;30.47;54.19;99918.81;1782288;79;21521;-36
2021/06/25 08:17:48;;;;;;;15.80;4.67;;;;;;;30.52;54.53;99919.26;1726995;80;21136;-42
2021/06/25 08:20:14;;;;;;;12.95;4.28;;;;;;;30.59;53.61;99910.12;1779641;79;20993;-37
2021/06/25 08:22:41;;;;;;;17.42;5.00;;;;;;;30.65;53.47;99909.06;1766965;78;21043;-42
2021/06/25 08:25:08;;;;;;;9.88;4.20;;;;;;;30.70;54.01;99913.59;1776370;79;21074;-37
2021/06/25 08:27:35;;;;;;;12.18;4.37;;;;;;;30.74;53.26;99911.48;1752805;79;21596;-37
2021/06/25 08:30:05;;;;;;;9.25;4.80;;;;;;;30.78;53.52;99911.54;1794828;78;21044;-42
2021/06/25 08:32:31;;;;;;;17.82;5.42;;;;;;;30.85;53.31;99910.02;1805195;78;21654;-37
2021/06/25 08:34:58;;;;;;;20.32;5.30;;;;;;;30.91;52.63;99908.11;1776887;80;21021;-37
2021/06/25 08:37:24;;;;;;;11.18;4.97;;;;;;;30.97;52.44;99910.75;1791574;78;21005;-37
2021/06/25 08:39:51;;;;;;;13.28;5.37;;;;;;;30.98;52.58;99901.14;1787509;79;21029;-43
2021/06/25 08:42:18;;;;;;;14.78;5.17;;;;;;;31.03;52.41;99904.78;1796375;78;21091;-42
2021/06/25 08:44:45;;;;;;;15.43;4.75;;;;;;;31.01;51.99;99900.00;1739310;80;21640;-42
2021/06/25 08:47:12;;;;;;;14.35;4.53;;;;;;;31.02;53.33;99897.64;1757530;79;21053;-38
2021/06/25 08:49:41;;;;;;;14.93;5.20;;;;;;;31.08;53.29;99890.83;1766613;78;21094;-37
2021/06/25 08:52:08;;;;;;;17.20;5.55;;;;;;;31.15;52.03;99887.44;1795926;78;21056;-38
2021/06/25 08:54:35;;;;;;;19.30;5.10;;;;;;;31.19;51.32;99882.09;1705106;80;21095;-38
2021/06/25 08:57:07;;;;;;;11.35;4.42;;;;;;;31.29;51.29;99882.13;1777344;78;21512;-42
2021/06/25 08:59:35;;;;;;;8.13;4.62;;;;;;;31.37;50.58;99876.00;1779306;78;21799;-38
2021/06/25 09:02:03;;;;;;;18.07;5.35;;;;;;;31.41;51.03;99881.48;1770283;78;21046;-37
2021/06/25 09:04:42;;;;;;;12.60;4.53;;;;;;;31.46;51.25;99877.86;1798495;78;21637;-43
2021/06/25 09:07:11;;;;;;;12.13;4.55;;;;;;;31.52;51.16;99878.13;1786886;78;21040;-38
2021/06/25 09:09:46;;;;;;;13.15;4.75;;;;;;;31.63;50.73;99867.66;1755285;80;21041;-37
2021/06/25 09:12:16;;;;;;;17.02;5.33;;;;;;;31.67;49.73;99866.88;1784880;79;21132;-38
2021/06/25 09:15:18;;;;;;;7.72;4.87;;;;;;;31.71;50.22;99865.06;1793180;77;21058;-43
2021/06/25 09:18:03;;;;;;;12.45;4.90;;;;;;;31.80;50.34;99869.30;1787133;79;21025;-42
2021/06/25 09:20:40;;;;;;;10.25;3.98;;;;;;;31.88;49.58;99865.34;1795372;78;21505;-37
2021/06/25 09:23:17;;;;;;;9.40;4.30;;;;;;;31.94;48.83;99868.81;1764403;80;21469;-37
2021/06/25 09:26:09;;;;;;;11.30;4.42;;;;;;;31.98;49.42;99865.67;1781410;79;20984;-36
2021/06/25 09:28:43;;;;;;;12.82;4.72;;;;;;;31.99;48.35;99860.61;1797395;78;21571;-39
2021/06/25 09:31:24;;;;;;;13.53;5.20;;;;;;;31.98;48.42;99860.27;1776119;79;21544;-37
2021/06/25 09:33:55;;;;;;;15.40;3.75;;;;;;;31.95;48.76;99858.34;1786531;77;21524;-42
2021/06/25 09:36:30;;;;;;;12.95;3.85;;;;;;;31.88;45.95;99862.14;1770396;78;21028;-38
2021/06/25 09:39:01;;;;;;;9.65;4.25;;;;;;;31.82;47.67;99863.23;1765400;78;21095;-42
2021/06/25 09:41:27;;;;;;;7.37;3.35;;;;;;;31.77;48.02;99859.08;1793234;78;21004;-42
2021/06/25 09:44:04;;;;;;;17.20;4.03;;;;;;;31.74;47.62;99853.98;1792883;78;21016;-42
2021/06/25 09:46:35;;;;;;;7.35;3.58;;;;;;;31.76;49.03;99853.83;1769272;79;21009;-38
2021/06/25 09:49:12;;;;;;;10.05;4.33;;;;;;;31.88;48.44;99854.53;1791698;78;21091;-37
2021/06/25 09:51:55;;;;;;;10.88;4.25;;;;;;;31.98;49.44;99852.15;1772350;79;21494;-42
2021/06/25 09:54:22;;;;;;;12.45;4.25;;;;;;;32.07;48.59;99854.48;1802513;78;21505;-37
2021/06/25 09:57:00;;;;;;;17.35;5.05;;;;;;;32.15;48.95;99848.32;1787467;79;21018;-42
2021/06/25 09:59:58;;;;;;;14.15;3.92;;;;;;;32.20;49.01;99852.78;1780137;78;21503;-42
2021/06/25 10:02:25;;;;;;;8.93;3.92;;;;;;;32.26;48.70;99857.09;1757581;80;21533;-42
2021/06/25 10:05:13;;;;;;;12.50;4.33;;;;;;;32.30;47.53;99849.55;1775352;80;21081;-37
2021/06/25 10:07:40;;;;;;;9.88;4.53;;;;;;;32.39;49.23;99855.92;1785032;78;21758;-37
2021/06/25 10:10:13;;;;;;;13.98;4.17;;;;;;;32.38;48.71;99851.02;1776774;78;21588;-37
2021/06/25 10:12:43;;;;;;;12.05;4.50;;;;;;;32.39;49.13;99847.80;1795986;78;21050;-42
2021/06/25 10:15:12;;;;;;;9.88;4.17;;;;;;;32.44;49.25;99852.27;1782531;78;21637;-42
2021/06/25 10:17:40;;;;;;;16.67;4.50;;;;;;;32.45;49.13;99851.26;1766054;80;21660;-42
2021/06/25 10:20:12;;;;;;;11.45;4.37;;;;;;;32.46;49.24;99844.33;1775463;78;20961;-42
2021/06/25 10:22:46;;;;;;;9.40;3.50;;;;;;;32.49;46.49;99841.34;1762603;79;21037;-37
2021/06/25 10:25:13;;;;;;;5.08;4.05;;;;;;;32.51;46.91;99842.53;1757827;80;21053;-42
2021/06/25 10:27:39;;;;;;;9.83;4.03;;;;;;;32.53;46.37;99836.48;1750471;79;21581;-38
2021/06/25 10:30:07;;;;;;;9.55;3.10;;;;;;;32.57;46.50;99840.06;1772034;80;21581;-37
2021/06/25 10:32:37;;;;;;;9.93;3.58;;;;;;;32.65;46.10;99842.53;1785791;78;21071;-42
2021/06/25 10:35:10;;;;;;;11.03;3.67;;;;;;;32.70;45.30;99846.45;1777040;78;21628;-37
2021/06/25 10:37:37;;;;;;;7.20;4.22;;;;;;;32.77;45.82;99851.64;1775805;78;21044;-38
2021/06/25 10:40:21;;;;;;;11.55;3.47;;;;;;;32.92;45.75;99851.13;1721744;79;21128;-37
2021/06/25 10:42:48;;;;;;;10.18;3.83;;;;;;;33.08;45.12;99849.42;1777625;79;21008;-37
2021/06/25 10:45:14;;;;;;;8.30;3.47;;;;;;;33.24;42.79;99849.23;1764996;80;21010;-38
2021/06/25 10:47:55;;;;;;;16.25;3.52;;;;;;;33.32;43.61;99848.78;1794092;77;21599;-43
2021/06/25 10:50:23;;;;;;;14.05;4.25;;;;;;;33.38;42.88;99849.17;1779668;78;21003;-35
2021/06/25 10:53:16;;;;;;;14.50;3.58;;;;;;;33.44;42.93;99854.84;1760658;80;21072;-43
2021/06/25 10:55:46;;;;;;;;;;;;;;;33.48;41.77;99858.09;1770148;80;20975;-42
2021/06/25 10:58:24;;;;;;;8.85;3.02;;;;;;;33.54;41.69;99858.81;1756241;80;20412;-41
2021/06/25 11:00:57;;;;;;;14.18;3.22;;;;;;;33.60;42.43;99855.47;1753028;80;21073;-40
2021/06/25 11:03:41;;;;;;;16.90;3.77;;;;;;;33.62;41.02;99857.51;1794958;78;21083;-37
2021/06/25 11:06:38;;;;;;;5.58;3.50;;;;;;;33.61;41.56;99860.73;1794374;78;20974;-36
2021/06/25 11:09:06;;;;;;;4.53;3.37;;;;;;;33.64;41.39;99865.52;1799306;78;21095;-42
2021/06/25 11:11:33;;;;;;;10.68;4.58;;;;;;;33.71;40.86;99866.56;1780841;78;21437;-43
2021/06/25 11:14:01;;;;;;;5.33;2.72;;;;;;;33.79;40.31;99866.10;1751887;80;21104;-41
2021/06/25 11:16:29;;;;;;;9.23;3.37;;;;;;;33.85;41.51;99870.88;1725234;81;21048;-35
2021/06/25 11:18:59;;;;;;;10.82;3.70;;;;;;;33.87;40.68;99872.95;1756679;80;21485;-37
2021/06/25 11:21:42;;;;;;;9.50;3.40;;;;;;;33.84;40.71;99870.55;1761115;80;20976;-35
2021/06/25 11:24:09;;;;;;;10.50;3.47;;;;;;;33.80;40.17;99862.38;1815051;78;21030;-36
2021/06/25 11:26:35;;;;;;;8.13;3.30;;;;;;;33.75;40.60;99860.67;1777292;79;21033;-35
2021/06/25 11:29:10;;;;;;;8.35;2.85;;;;;;;33.68;39.49;99848.73;1745811;79;21666;-41
2021/06/25 11:31:41;;;;;;;11.33;3.30;;;;;;;33.60;40.50;99852.25;1754119;80;21024;-41
2021/06/25 11:34:06;;;;;;;5.00;3.60;;;;;;;33.53;41.07;99854.41;1728469;80;21016;-37
2021/06/25 11:36:52;;;;;;;5.50;3.45;;;;;;;33.52;41.23;99850.00;1768292;79;21041;-42
2021/06/25 11:39:33;;;;;;;3.87;2.80;;;;;;;33.49;41.69;99849.80;1783295;78;21056;-41
2021/06/25 11:42:14;;;;;;;7.28;3.37;;;;;;;33.47;42.02;99856.40;1768523;79;21017;-37
2021/06/25 11:44:50;;;;;;;10.85;3.62;;;;;;;33.45;41.74;99855.69;1787811;78;21050;-42
2021/06/25 11:47:26;;;;;;;10.72;3.30;;;;;;;33.43;41.18;99859.06;1782993;79;21382;-42
2021/06/25 11:52:25;;;;;;;12.65;3.47;;;;;;;33.39;40.53;99848.16;1776997;79;21048;-42
2021/06/25 11:54:54;;;;;;;10.38;3.25;;;;;;;33.32;41.24;99847.94;1787010;78;21012;-37
2021/06/25 11:57:24;;;;;;;7.62;3.15;;;;;;;33.23;41.67;99844.83;1820182;77;21146;-42
2021/06/25 12:00:11;;;;;;;11.15;3.83;;;;;;;33.21;42.06;99844.11;1761031;80;21007;-42
2021/06/25 12:02:54;;;;;;;10.03;3.65;;;;;;;33.21;42.06;99849.02;1773223;78;21046;-37
2021/06/25 12:05:30;;;;;;;11.15;4.00;;;;;;;33.21;42.06;99844.11;1803429;77;21103;-42
2021/06/25 12:08:14;;;;;;;10.48;3.55;;;;;;;33.22;42.26;99843.09;1813873;77;21043;-42
2021/06/25 12:10:59;;;;;;;7.30;3.55;;;;;;;33.24;42.18;99841.95;1787644;79;21539;-42
2021/06/25 12:13:26;;;;;;;8.23;3.65;;;;;;;33.26;41.29;99835.86;1781529;78;21139;-42
2021/06/25 12:15:53;;;;;;;5.40;3.35;;;;;;;33.30;42.08;99837.26;1745868;80;21009;-42
2021/06/25 12:18:24;;;;;;;7.30;3.60;;;;;;;33.32;41.59;99837.09;1750835;80;21568;-37
2021/06/25 12:21:07;;;;;;;9.43;3.67;;;;;;;33.28;41.51;99832.51;1788813;78;20972;-35
